createdAt,value
2023-04-16T00:01:36.258Z,9.93
2023-04-16T00:04:03.515Z,6.28
2023-04-16T00:06:30.605Z,9.20
2023-04-16T00:08:58.537Z,6.30
2023-04-16T00:11:25.150Z,9.23
2023-04-16T00:13:51.735Z,9.80
2023-04-16T00:16:18.410Z,10.35
2023-04-16T00:18:44.976Z,10.80
2023-04-16T00:21:11.700Z,7.95
2023-04-16T00:23:38.280Z,10.93
2023-04-16T00:26:06.273Z,11.93
2023-04-16T00:28:33.151Z,7.57
2023-04-16T00:31:01.090Z,10.73
2023-04-16T00:33:27.718Z,9.07
2023-04-16T00:35:54.289Z,9.32
2023-04-16T00:38:20.965Z,6.10
2023-04-16T00:40:47.560Z,6.72
2023-04-16T00:43:22.290Z,10.23
2023-04-16T00:45:49.133Z,10.48
2023-04-16T00:48:16.255Z,10.43
2023-04-16T00:50:42.856Z,9.30
2023-04-16T00:53:09.741Z,11.07
2023-04-16T00:55:38.132Z,9.57
2023-04-16T00:58:04.851Z,10.38
2023-04-16T01:00:32.961Z,8.55
2023-04-16T01:02:59.856Z,9.25
2023-04-16T01:05:26.836Z,7.30
2023-04-16T01:07:53.430Z,9.27
2023-04-16T01:10:20.246Z,11.50
2023-04-16T01:12:46.818Z,8.45
2023-04-16T01:15:13.447Z,15.23
2023-04-16T01:17:45.532Z,11.88
2023-04-16T01:20:12.359Z,10.15
2023-04-16T01:22:40.636Z,8.25
2023-04-16T01:25:07.497Z,8.60
2023-04-16T01:27:34.373Z,16.65
2023-04-16T01:30:01.006Z,14.25
2023-04-16T01:32:38.930Z,11.50
2023-04-16T01:35:06.110Z,7.47
2023-04-16T01:37:33.915Z,9.27
2023-04-16T01:40:02.009Z,16.30
2023-04-16T01:42:29.113Z,11.43
2023-04-16T01:44:55.757Z,14.23
2023-04-16T01:47:22.483Z,11.98
2023-04-16T01:49:49.085Z,13.65
2023-04-16T01:52:16.178Z,15.40
2023-04-16T01:54:42.776Z,10.73
2023-04-16T01:57:10.758Z,16.35
2023-04-16T01:59:37.348Z,12.15
2023-04-16T02:02:09.168Z,12.27
2023-04-16T02:04:35.851Z,17.92
2023-04-16T02:07:02.524Z,22.95
2023-04-16T02:09:29.971Z,21.30
2023-04-16T02:11:56.916Z,23.27
2023-04-16T02:14:24.881Z,19.38
2023-04-16T02:16:51.610Z,13.45
2023-04-16T02:19:35.064Z,10.82
2023-04-16T02:22:01.772Z,16.15
2023-04-16T02:24:28.553Z,19.08
2023-04-16T02:26:56.052Z,18.30
2023-04-16T02:29:23.053Z,14.93
2023-04-16T02:31:57.683Z,14.85
2023-04-16T02:34:24.413Z,16.40
2023-04-16T02:36:51.134Z,19.23
2023-04-16T02:39:18.008Z,21.35
2023-04-16T02:41:44.646Z,20.17
2023-04-16T02:44:11.269Z,16.75
2023-04-16T02:46:37.838Z,24.65
2023-04-16T02:49:05.808Z,18.50
2023-04-16T02:51:32.528Z,19.85
2023-04-16T02:53:59.241Z,22.92
2023-04-16T02:56:26.097Z,16.45
2023-04-16T02:58:52.722Z,19.38
2023-04-16T03:01:19.384Z,20.85
2023-04-16T03:03:46.075Z,25.83
2023-04-16T03:06:14.007Z,15.95
2023-04-16T03:08:40.671Z,15.32
2023-04-16T03:11:07.289Z,14.55
2023-04-16T03:13:33.853Z,16.92
2023-04-16T03:16:00.480Z,14.98
2023-04-16T03:18:27.102Z,13.13
2023-04-16T03:20:54.171Z,14.60
2023-04-16T03:23:22.051Z,13.15
2023-04-16T03:25:48.725Z,14.40
2023-04-16T03:28:18.040Z,18.38
2023-04-16T03:30:50.430Z,18.38
2023-04-16T03:35:43.712Z,11.55
2023-04-16T03:38:10.351Z,13.35
2023-04-16T03:40:38.913Z,15.95
2023-04-16T03:43:05.594Z,14.00
2023-04-16T03:45:32.797Z,17.80
2023-04-16T03:47:59.458Z,13.75
2023-04-16T03:50:26.323Z,14.18
2023-04-16T03:52:52.911Z,14.50
2023-04-16T03:55:19.533Z,11.27
2023-04-16T03:57:47.485Z,14.73
2023-04-16T04:00:15.961Z,15.70
2023-04-16T04:02:55.901Z,11.70
2023-04-16T04:05:23.567Z,15.98
2023-04-16T04:07:51.379Z,19.08
2023-04-16T04:10:18.055Z,19.10
2023-04-16T04:12:45.186Z,20.95
2023-04-16T04:15:13.922Z,20.27
2023-04-16T04:17:42.264Z,17.17
2023-04-16T04:20:09.914Z,19.55
2023-04-16T04:22:36.897Z,18.15
2023-04-16T04:25:03.709Z,23.08
2023-04-16T04:27:32.453Z,20.73
2023-04-16T04:29:59.065Z,15.60
2023-04-16T04:32:26.988Z,18.00
2023-04-16T04:34:53.559Z,17.40
2023-04-16T04:37:20.096Z,22.98
2023-04-16T04:39:46.734Z,21.65
2023-04-16T04:42:13.353Z,19.85
2023-04-16T04:44:40.246Z,20.05
2023-04-16T04:47:08.171Z,18.80
2023-04-16T04:49:36.709Z,21.08
2023-04-16T04:52:03.342Z,20.80
2023-04-16T04:54:32.100Z,25.23
2023-04-16T04:56:59.082Z,24.08
2023-04-16T04:59:25.738Z,23.10
2023-04-16T05:01:52.685Z,20.65
2023-04-16T05:04:19.602Z,23.48
2023-04-16T05:06:47.612Z,24.98
2023-04-16T05:09:14.159Z,24.27
2023-04-16T05:11:42.141Z,24.63
2023-04-16T05:14:08.849Z,23.30
2023-04-16T05:16:36.888Z,22.05
2023-04-16T05:19:03.952Z,21.80
2023-04-16T05:21:30.593Z,26.73
2023-04-16T05:23:58.737Z,22.50
2023-04-16T05:26:25.319Z,22.60
2023-04-16T05:28:51.904Z,24.95
2023-04-16T05:31:18.708Z,24.80
2023-04-16T05:33:45.347Z,19.75
2023-04-16T05:36:12.001Z,19.98
2023-04-16T05:38:38.558Z,19.60
2023-04-16T05:41:07.778Z,21.55
2023-04-16T05:43:34.307Z,23.25
2023-04-16T05:46:00.881Z,24.90
2023-04-16T05:48:27.496Z,25.27
2023-04-16T05:50:54.154Z,22.67
2023-04-16T05:53:20.705Z,21.05
2023-04-16T05:55:47.288Z,26.77
2023-04-16T05:58:15.201Z,20.58
2023-04-16T06:00:41.852Z,18.83
2023-04-16T06:03:08.591Z,20.95
2023-04-16T06:05:35.532Z,22.00
2023-04-16T06:08:02.172Z,21.15
2023-04-16T06:10:28.770Z,23.52
2023-04-16T06:12:55.351Z,25.95
2023-04-16T06:15:23.367Z,26.20
2023-04-16T06:17:50.221Z,22.27
2023-04-16T06:20:16.957Z,25.58
2023-04-16T06:22:43.681Z,21.92
2023-04-16T06:25:10.312Z,25.10
2023-04-16T06:27:36.861Z,28.00
2023-04-16T06:30:03.781Z,29.48
2023-04-16T06:32:31.823Z,28.17
2023-04-16T06:34:58.484Z,25.35
2023-04-16T06:37:25.289Z,30.95
2023-04-16T06:39:51.856Z,28.95
2023-04-16T06:42:18.519Z,28.50
2023-04-16T06:44:45.132Z,30.30
2023-04-16T06:47:11.868Z,29.83
2023-04-16T06:49:39.806Z,33.70
2023-04-16T06:52:06.668Z,31.67
2023-04-16T06:54:33.357Z,37.60
2023-04-16T06:56:59.974Z,32.17
2023-04-16T06:59:26.547Z,33.58
2023-04-16T07:01:53.264Z,33.20
2023-04-16T07:04:20.045Z,33.50
2023-04-16T07:06:47.980Z,31.85
2023-04-16T07:09:14.575Z,37.20
2023-04-16T07:11:41.878Z,37.53
2023-04-16T07:14:08.538Z,41.80
2023-04-16T07:16:35.216Z,44.83
2023-04-16T07:19:01.897Z,40.63
2023-04-16T07:21:28.531Z,37.00
2023-04-16T07:23:56.476Z,34.80
2023-04-16T07:26:23.184Z,36.22
2023-04-16T07:28:49.822Z,42.53
2023-04-16T07:31:16.552Z,33.85
2023-04-16T07:33:43.220Z,35.65
2023-04-16T07:36:09.890Z,37.33
2023-04-16T07:38:36.508Z,42.45
2023-04-16T07:41:04.491Z,46.13
2023-04-16T07:43:31.003Z,45.05
2023-04-16T07:45:57.626Z,36.70
2023-04-16T07:48:24.364Z,40.53
2023-04-16T07:50:51.117Z,41.88
2023-04-16T07:53:18.100Z,36.85
2023-04-16T07:55:44.740Z,38.75
2023-04-16T07:58:12.686Z,38.33
2023-04-16T08:00:39.331Z,41.42
2023-04-16T08:03:06.169Z,40.20
2023-04-16T08:05:32.918Z,37.72
2023-04-16T08:07:59.439Z,37.28
2023-04-16T08:10:26.055Z,41.20
2023-04-16T08:12:52.748Z,41.78
2023-04-16T08:15:20.706Z,34.55
2023-04-16T08:17:47.301Z,39.03
2023-04-16T08:20:16.910Z,37.05
2023-04-16T08:22:45.406Z,33.92
2023-04-16T08:25:12.110Z,39.20
2023-04-16T08:27:38.748Z,36.50
2023-04-16T08:30:06.559Z,39.30
2023-04-16T08:32:34.567Z,37.80
2023-04-16T08:35:01.211Z,39.95
2023-04-16T08:37:27.860Z,38.85
2023-04-16T08:39:54.507Z,42.85
2023-04-16T08:42:29.015Z,33.78
2023-04-16T08:45:06.204Z,36.13
2023-04-16T08:47:35.859Z,33.13
2023-04-16T08:50:04.014Z,34.75
2023-04-16T08:52:31.528Z,32.17
2023-04-16T08:55:04.298Z,32.20
2023-04-16T08:57:38.777Z,34.42
2023-04-16T09:00:07.903Z,32.03
2023-04-16T09:02:36.177Z,32.33
2023-04-16T09:05:05.122Z,32.70
2023-04-16T09:07:33.355Z,33.20
2023-04-16T09:10:00.641Z,30.58
2023-04-16T09:12:27.553Z,26.92
2023-04-16T09:14:56.342Z,30.88
2023-04-16T09:17:22.955Z,26.67
2023-04-16T09:19:50.984Z,29.55
2023-04-16T09:22:17.601Z,26.65
2023-04-16T09:24:44.211Z,29.65
2023-04-16T09:27:11.805Z,27.75
2023-04-16T09:29:39.696Z,23.90
2023-04-16T09:32:08.523Z,24.42
2023-04-16T09:34:53.565Z,27.50
2023-04-16T09:37:21.559Z,23.00
2023-04-16T09:39:53.983Z,26.73
2023-04-16T09:44:49.727Z,31.50
2023-04-16T09:47:16.297Z,27.98
2023-04-16T09:49:43.041Z,28.10
2023-04-16T09:52:12.975Z,28.48
2023-04-16T09:54:46.114Z,25.63
2023-04-16T09:57:12.748Z,28.50
2023-04-16T09:59:39.383Z,23.75
2023-04-16T10:02:15.315Z,22.17
2023-04-16T10:04:47.803Z,25.65
2023-04-16T10:07:14.915Z,25.15
2023-04-16T10:09:43.341Z,26.85
2023-04-16T10:12:10.755Z,24.30
2023-04-16T10:14:37.273Z,24.48
2023-04-16T10:17:04.555Z,22.27
2023-04-16T10:19:31.999Z,24.63
2023-04-16T10:21:58.995Z,25.33
2023-04-16T10:24:25.873Z,31.40
2023-04-16T10:26:55.137Z,26.45
2023-04-16T10:29:22.507Z,30.63
2023-04-16T10:31:50.841Z,24.13
2023-04-16T10:34:19.662Z,26.63
2023-04-16T10:36:49.081Z,22.52
2023-04-16T10:39:18.927Z,26.40
2023-04-16T10:41:45.603Z,27.75
2023-04-16T10:44:16.291Z,22.73
2023-04-16T10:46:43.953Z,27.27
2023-04-16T10:49:14.369Z,25.73
2023-04-16T10:51:41.790Z,21.92
2023-04-16T10:54:20.860Z,22.45
2023-04-16T10:56:47.569Z,22.35
2023-04-16T10:59:18.707Z,21.80
2023-04-16T11:01:46.938Z,21.48
2023-04-16T11:04:36.018Z,20.40
2023-04-16T11:07:05.299Z,21.60
2023-04-16T11:09:55.114Z,20.13
2023-04-16T11:12:23.423Z,21.73
2023-04-16T11:14:53.127Z,21.85
2023-04-16T11:17:21.049Z,18.55
2023-04-16T11:19:48.328Z,20.58
2023-04-16T11:22:16.980Z,19.65
2023-04-16T11:24:44.673Z,19.40
2023-04-16T11:27:12.788Z,18.15
2023-04-16T11:29:39.683Z,17.55
2023-04-16T11:32:07.678Z,20.52
2023-04-16T11:34:34.292Z,18.77
2023-04-16T11:37:00.912Z,17.30
2023-04-16T11:39:27.621Z,19.98
2023-04-16T11:41:54.288Z,17.73
2023-04-16T11:44:22.078Z,17.52
2023-04-16T11:46:49.080Z,19.52
2023-04-16T11:49:17.229Z,16.65
2023-04-16T11:51:45.427Z,16.33
2023-04-16T11:54:19.382Z,17.48
2023-04-16T11:56:47.177Z,17.00
2023-04-16T11:59:15.105Z,18.25
2023-04-16T12:01:45.305Z,15.35
2023-04-16T12:04:14.016Z,18.67
2023-04-16T12:07:05.553Z,15.95
2023-04-16T12:09:32.727Z,14.02
2023-04-16T12:11:59.314Z,16.50
2023-04-16T12:14:25.857Z,13.50
2023-04-16T12:16:52.534Z,17.17
2023-04-16T12:19:19.284Z,17.67
2023-04-16T12:21:48.846Z,16.50
2023-04-16T12:24:17.607Z,16.02
2023-04-16T12:26:45.673Z,14.88
2023-04-16T12:29:20.194Z,14.98
2023-04-16T12:31:47.462Z,14.80
2023-04-16T12:34:14.478Z,15.57
2023-04-16T12:36:41.533Z,13.63
2023-04-16T12:39:10.058Z,19.15
2023-04-16T12:41:38.058Z,15.77
2023-04-16T12:44:06.432Z,18.38
2023-04-16T12:46:33.092Z,22.02
2023-04-16T12:48:59.745Z,20.63
2023-04-16T12:51:26.588Z,19.73
2023-04-16T12:53:53.824Z,19.58
2023-04-16T12:56:21.800Z,21.80
2023-04-16T12:58:48.461Z,22.88
2023-04-16T13:01:14.991Z,21.42
2023-04-16T13:03:41.847Z,22.95
2023-04-16T13:06:08.585Z,21.85
2023-04-16T13:08:35.218Z,21.13
2023-04-16T13:11:01.893Z,21.42
2023-04-16T13:13:30.021Z,25.42
2023-04-16T13:15:56.592Z,24.00
2023-04-16T13:18:23.439Z,25.20
2023-04-16T13:20:50.103Z,19.70
2023-04-16T13:23:16.708Z,23.95
2023-04-16T13:25:43.251Z,21.67
2023-04-16T13:28:09.936Z,20.85
2023-04-16T13:30:37.920Z,21.75
2023-04-16T13:33:04.600Z,24.70
2023-04-16T13:35:31.242Z,22.10
2023-04-16T13:37:57.923Z,24.95
2023-04-16T13:40:24.558Z,22.55
2023-04-16T13:42:51.503Z,19.70
2023-04-16T13:45:18.115Z,20.23
2023-04-16T13:47:46.123Z,21.35
2023-04-16T13:50:12.737Z,24.95
2023-04-16T13:52:39.374Z,24.40
2023-04-16T13:55:06.685Z,23.80
2023-04-16T13:57:33.302Z,21.15
2023-04-16T13:59:59.844Z,20.73
2023-04-16T14:02:26.602Z,21.10
2023-04-16T14:04:54.870Z,21.25
2023-04-16T14:07:21.391Z,19.10
2023-04-16T14:09:48.013Z,20.70
2023-04-16T14:12:14.653Z,20.38
2023-04-16T14:14:41.304Z,20.42
2023-04-16T14:17:07.882Z,21.23
2023-04-16T14:19:34.487Z,21.27
2023-04-16T14:22:02.699Z,19.23
2023-04-16T14:24:29.354Z,18.65
2023-04-16T14:26:56.061Z,20.17
2023-04-16T14:29:22.670Z,19.17
2023-04-16T14:31:49.389Z,21.75
2023-04-16T14:34:16.047Z,17.95
2023-04-16T14:36:42.802Z,15.57
2023-04-16T14:39:11.108Z,15.98
2023-04-16T14:41:37.788Z,17.52
2023-04-16T14:44:04.442Z,19.73
2023-04-16T14:46:30.958Z,14.50
2023-04-16T14:48:57.501Z,15.93
2023-04-16T14:51:24.046Z,19.00
2023-04-16T14:53:50.684Z,19.17
2023-04-16T14:56:18.706Z,19.13
2023-04-16T14:58:45.324Z,16.63
2023-04-16T15:01:12.000Z,16.42
2023-04-16T15:03:38.678Z,16.38
2023-04-16T15:06:05.914Z,17.92
2023-04-16T15:08:32.703Z,14.40
2023-04-16T15:10:59.219Z,16.88
2023-04-16T15:13:27.373Z,16.13
2023-04-16T15:15:53.997Z,16.38
2023-04-16T15:18:20.586Z,16.73
2023-04-16T15:20:47.129Z,17.17
2023-04-16T15:23:13.644Z,16.05
2023-04-16T15:25:40.381Z,20.33
2023-04-16T15:28:06.955Z,18.60
2023-04-16T15:30:34.921Z,19.35
2023-04-16T15:33:01.707Z,16.38
2023-04-16T15:35:28.383Z,15.15
2023-04-16T15:37:54.975Z,13.80
2023-04-16T15:40:21.562Z,14.88
2023-04-16T15:42:48.291Z,17.88
2023-04-16T15:45:14.819Z,16.48
2023-04-16T15:47:42.796Z,12.88
2023-04-16T15:50:09.732Z,12.82
2023-04-16T15:52:36.526Z,14.45
2023-04-16T15:55:04.379Z,12.77
2023-04-16T15:57:31.153Z,15.68
2023-04-16T16:00:06.614Z,13.32
2023-04-16T16:02:34.247Z,14.38
2023-04-16T16:05:02.487Z,12.65
2023-04-16T16:07:29.051Z,16.17
2023-04-16T16:09:55.720Z,13.10
2023-04-16T16:12:22.295Z,12.05
2023-04-16T16:14:48.831Z,14.25
2023-04-16T16:17:15.559Z,13.50
2023-04-16T16:19:42.539Z,14.27
2023-04-16T16:22:11.383Z,13.57
2023-04-16T16:24:37.958Z,12.88
2023-04-16T16:27:04.794Z,16.45
2023-04-16T16:29:31.307Z,18.88
2023-04-16T16:31:58.083Z,14.63
2023-04-16T16:34:24.961Z,13.73
2023-04-16T16:36:51.887Z,14.82
2023-04-16T16:39:19.836Z,14.00
2023-04-16T16:41:46.532Z,16.15
2023-04-16T16:44:13.096Z,14.13
2023-04-16T16:46:39.666Z,12.80
2023-04-16T16:49:06.229Z,14.02
2023-04-16T16:51:32.858Z,17.73
2023-04-16T16:53:59.484Z,13.82
2023-04-16T16:56:27.440Z,16.05
2023-04-16T16:58:54.088Z,16.60
2023-04-16T17:01:20.665Z,14.98
2023-04-16T17:03:47.380Z,14.20
2023-04-16T17:06:14.072Z,15.90
2023-04-16T17:08:40.683Z,20.75
2023-04-16T17:11:07.300Z,19.48
2023-04-16T17:13:35.266Z,15.20
2023-04-16T17:16:01.869Z,13.35
2023-04-16T17:18:28.444Z,16.58
2023-04-16T17:20:55.120Z,14.93
2023-04-16T17:23:21.636Z,13.32
2023-04-16T17:25:48.223Z,11.57
2023-04-16T17:28:14.796Z,15.23
2023-04-16T17:30:42.797Z,16.85
2023-04-16T17:33:09.394Z,13.55
2023-04-16T17:35:35.995Z,15.02
2023-04-16T17:38:02.639Z,16.92
2023-04-16T17:40:29.227Z,13.13
2023-04-16T17:42:55.819Z,17.00
2023-04-16T17:45:22.421Z,15.13
2023-04-16T17:47:50.443Z,16.95
2023-04-16T17:50:17.182Z,21.05
2023-04-16T17:52:43.808Z,17.30
2023-04-16T17:55:11.389Z,19.83
2023-04-16T17:57:37.919Z,16.17
2023-04-16T18:00:05.919Z,18.95
2023-04-16T18:02:38.412Z,19.35
2023-04-16T18:05:07.945Z,16.92
2023-04-16T18:07:34.910Z,23.13
2023-04-16T18:10:01.553Z,18.13
2023-04-16T18:12:28.181Z,17.90
2023-04-16T18:14:54.819Z,18.30
2023-04-16T18:17:21.420Z,19.05
2023-04-16T18:19:48.037Z,21.75
2023-04-16T18:22:15.904Z,17.70
2023-04-16T18:24:42.435Z,20.10
2023-04-16T18:27:09.080Z,16.77
2023-04-16T18:29:35.669Z,18.25
2023-04-16T18:32:04.428Z,20.35
2023-04-16T18:34:31.609Z,22.98
2023-04-16T18:36:58.158Z,20.25
2023-04-16T18:39:26.095Z,21.42
2023-04-16T18:41:52.650Z,23.77
2023-04-16T18:44:19.253Z,19.92
2023-04-16T18:46:45.895Z,19.38
2023-04-16T18:49:12.846Z,20.75
2023-04-16T18:51:39.489Z,20.95
2023-04-16T18:54:06.070Z,22.05
2023-04-16T18:56:34.027Z,19.17
2023-04-16T18:59:00.631Z,17.40
2023-04-16T19:01:27.375Z,19.27
2023-04-16T19:03:54.106Z,21.95
2023-04-16T19:06:20.674Z,18.85
2023-04-16T19:08:47.224Z,21.83
2023-04-16T19:11:13.892Z,19.92
2023-04-16T19:13:41.801Z,21.33
2023-04-16T19:16:08.392Z,18.83
2023-04-16T19:18:35.007Z,17.15
2023-04-16T19:21:01.703Z,18.88
2023-04-16T19:23:28.724Z,21.30
2023-04-16T19:25:55.416Z,24.70
2023-04-16T19:28:22.021Z,20.55
2023-04-16T19:30:51.517Z,15.27
2023-04-16T19:33:18.160Z,15.63
2023-04-16T19:35:45.174Z,17.00
2023-04-16T19:38:11.959Z,21.35
2023-04-16T19:40:38.558Z,19.63
2023-04-16T19:43:05.091Z,21.55
2023-04-16T19:45:31.639Z,19.85
2023-04-16T19:47:59.620Z,22.08
2023-04-16T19:50:26.299Z,20.10
2023-04-16T19:52:52.853Z,19.02
2023-04-16T19:55:19.438Z,21.55
2023-04-16T19:57:47.578Z,19.52
2023-04-16T20:00:15.017Z,17.33
2023-04-16T20:02:41.733Z,16.55
2023-04-16T20:05:10.028Z,18.23
2023-04-16T20:07:40.536Z,18.20
2023-04-16T20:10:07.901Z,22.08
2023-04-16T20:12:34.546Z,17.85
2023-04-16T20:15:01.091Z,22.00
2023-04-16T20:17:27.705Z,18.65
2023-04-16T20:19:54.500Z,18.00
2023-04-16T20:22:22.458Z,19.75
2023-04-16T20:24:49.017Z,18.35
2023-04-16T20:27:15.574Z,19.77
2023-04-16T20:29:42.441Z,21.95
2023-04-16T20:32:09.009Z,22.02
2023-04-16T20:34:35.600Z,24.70
2023-04-16T20:37:02.234Z,20.88
2023-04-16T20:39:30.191Z,24.60
2023-04-16T20:41:56.776Z,20.70
2023-04-16T20:44:23.799Z,21.08
2023-04-16T20:46:50.536Z,22.08
2023-04-16T20:49:17.353Z,20.25
2023-04-16T20:51:43.886Z,24.77
2023-04-16T20:54:10.428Z,24.88
2023-04-16T20:56:38.352Z,23.85
2023-04-16T20:59:04.930Z,30.70
2023-04-16T21:01:31.496Z,23.58
2023-04-16T21:03:58.306Z,25.60
2023-04-16T21:06:25.266Z,24.02
2023-04-16T21:08:51.823Z,25.23
2023-04-16T21:11:18.433Z,27.48
2023-04-16T21:13:46.385Z,21.83
2023-04-16T21:16:12.993Z,27.80
2023-04-16T21:18:39.601Z,25.13
2023-04-16T21:21:06.213Z,24.05
2023-04-16T21:23:32.904Z,22.90
2023-04-16T21:25:59.450Z,22.80
2023-04-16T21:28:26.077Z,23.90
2023-04-16T21:30:54.007Z,26.45
2023-04-16T21:33:20.660Z,22.50
2023-04-16T21:35:50.977Z,29.73
2023-04-16T21:38:17.517Z,26.48
2023-04-16T21:40:45.182Z,23.67
2023-04-16T21:43:11.763Z,30.80
2023-04-16T21:45:38.275Z,28.38
2023-04-16T21:48:06.807Z,30.20
2023-04-16T21:50:33.413Z,31.17
2023-04-16T21:53:00.051Z,28.25
2023-04-16T21:55:26.611Z,24.35
2023-04-16T21:57:53.298Z,30.17
2023-04-16T22:00:20.142Z,29.75
2023-04-16T22:02:46.877Z,28.80
2023-04-16T22:05:15.066Z,28.58
2023-04-16T22:07:41.635Z,28.58
2023-04-16T22:10:09.140Z,34.60
2023-04-16T22:12:35.782Z,32.13
2023-04-16T22:15:03.357Z,30.25
2023-04-16T22:17:30.098Z,29.15
2023-04-16T22:19:56.941Z,32.95
2023-04-16T22:22:24.941Z,27.42
2023-04-16T22:24:51.745Z,30.85
2023-04-16T22:27:18.295Z,28.90
2023-04-16T22:29:44.984Z,29.00
2023-04-16T22:32:11.643Z,26.55
2023-04-16T22:34:38.236Z,30.77
2023-04-16T22:37:04.911Z,30.60
2023-04-16T22:39:32.802Z,32.28
2023-04-16T22:41:59.356Z,31.92
2023-04-16T22:44:26.087Z,36.95
2023-04-16T22:46:52.612Z,32.95
2023-04-16T22:49:19.189Z,32.95
2023-04-16T22:51:45.999Z,29.25
2023-04-16T22:54:13.989Z,29.40
2023-04-16T22:56:41.980Z,27.58
2023-04-16T22:59:08.598Z,34.67
2023-04-16T23:01:35.381Z,33.20
2023-04-16T23:04:02.050Z,29.38
2023-04-16T23:06:28.755Z,30.23
2023-04-16T23:08:55.320Z,31.25
2023-04-16T23:11:22.183Z,31.15
2023-04-16T23:13:50.084Z,31.67
2023-04-16T23:16:16.720Z,29.33
2023-04-16T23:18:43.412Z,33.17
2023-04-16T23:21:09.937Z,34.92
2023-04-16T23:23:36.491Z,31.17
2023-04-16T23:26:03.335Z,34.00
2023-04-16T23:28:29.932Z,34.83
2023-04-16T23:30:57.940Z,35.35
2023-04-16T23:33:24.607Z,34.95
2023-04-16T23:35:51.159Z,30.80
2023-04-16T23:38:17.732Z,32.33
2023-04-16T23:40:44.337Z,32.45
2023-04-16T23:43:10.881Z,30.45
2023-04-16T23:45:37.421Z,33.72
2023-04-16T23:48:05.915Z,35.35
2023-04-16T23:50:32.473Z,33.42
2023-04-16T23:52:59.085Z,30.75
2023-04-16T23:55:25.654Z,32.58
2023-04-16T23:57:52.255Z,33.28
